Time;durP1;ratioP1;P1;durP2;ratioP2;P2;SDS_P1;SDS_P2;PMS_P1;PMS_P2;Temp;Humidity;BMP_temperature;BMP_pressure;BME280_temperature;BME280_humidity;BME280_pressure;Samples;Min_cycle;Max_cycle;Signal;HPM_P1;HPM_P2
2022/05/05 00:00:30;;;;;;;10.93;10.23;;;;;;;7.61;95.47;93156.63;5070281;28;20256;-82
2022/05/05 00:02:56;;;;;;;10.77;10.27;;;;;;;7.68;95.01;93159.00;5073161;28;20225;-81
2022/05/05 00:05:21;;;;;;;10.63;10.03;;;;;;;7.71;95.09;93158.53;5073600;28;20200;-80
2022/05/05 00:07:47;;;;;;;10.73;10.03;;;;;;;7.54;94.99;93163.03;5072556;28;20255;-83
2022/05/05 00:15:41;;;;;;;10.90;10.40;;;;;;;7.34;95.38;93168.84;5072823;28;20188;-81
2022/05/05 00:18:06;;;;;;;10.00;9.50;;;;;;;7.38;95.02;93158.72;5067407;28;20177;-81
2022/05/05 00:20:31;;;;;;;10.53;9.70;;;;;;;7.32;95.27;93150.13;5072257;28;20261;-82
2022/05/05 00:22:57;;;;;;;9.70;9.23;;;;;;;7.32;95.90;93155.31;5069750;28;20225;-82
2022/05/05 00:25:23;;;;;;;9.67;9.07;;;;;;;7.20;96.40;93133.91;5073627;28;20170;-82
2022/05/05 00:27:48;;;;;;;9.93;9.47;;;;;;;7.30;95.67;93151.41;5070094;28;20300;-81
2022/05/05 00:30:14;;;;;;;10.60;10.10;;;;;;;7.46;94.37;93146.09;5070375;28;20795;-82
2022/05/05 00:32:39;;;;;;;9.27;8.87;;;;;;;7.49;93.92;93150.81;5069553;28;20237;-83
2022/05/05 00:35:05;;;;;;;11.03;10.37;;;;;;;7.47;93.65;93152.84;5065041;28;20174;-80
2022/05/05 00:37:30;;;;;;;10.10;9.60;;;;;;;7.16;93.64;93135.41;5069206;28;20312;-83
2022/05/05 00:39:55;;;;;;;10.20;9.47;;;;;;;7.24;94.89;93160.94;5071400;28;20188;-82
2022/05/05 00:42:21;;;;;;;10.97;10.37;;;;;;;7.06;95.73;93152.69;5073083;28;20236;-83
2022/05/05 00:44:46;;;;;;;10.60;10.00;;;;;;;7.31;95.25;93153.75;5083034;28;20173;-81
2022/05/05 00:47:16;;;;;;;9.90;9.40;;;;;;;7.30;95.52;93152.16;5065344;28;20297;-82
2022/05/05 00:49:45;;;;;;;10.80;10.20;;;;;;;7.31;94.70;93152.97;5070966;28;20197;-83
2022/05/05 00:52:10;;;;;;;9.63;9.13;;;;;;;7.00;95.09;93131.09;5073187;28;20233;-83
2022/05/05 00:54:36;;;;;;;10.03;9.53;;;;;;;7.09;95.04;93155.59;5072544;28;20185;-82
2022/05/05 00:57:01;;;;;;;10.90;10.40;;;;;;;7.02;95.68;93146.44;5052241;28;20232;-82
2022/05/05 00:59:27;;;;;;;9.60;9.03;;;;;;;7.14;95.16;93157.47;5049645;28;20190;-81
2022/05/05 01:01:53;;;;;;;10.77;10.03;;;;;;;6.79;95.50;93107.75;5049153;28;20308;-82
2022/05/05 01:04:19;;;;;;;10.70;10.07;;;;;;;6.94;96.17;93144.25;5065903;28;20194;-82
2022/05/05 01:06:45;;;;;;;10.20;9.60;;;;;;;7.01;96.24;93148.22;5053517;28;20293;-81
2022/05/05 01:09:10;;;;;;;10.07;9.63;;;;;;;6.81;96.45;93119.47;5053857;28;20182;-81
2022/05/05 01:11:36;;;;;;;10.37;9.60;;;;;;;7.02;96.49;93141.25;5058072;28;20308;-80
2022/05/05 01:14:01;;;;;;;11.77;11.07;;;;;;;7.11;95.50;93152.75;5063446;28;20188;-82
2022/05/05 01:16:28;;;;;;;10.73;10.03;;;;;;;7.06;95.14;93156.09;5072563;28;20471;-80
2022/05/05 01:18:55;;;;;;;10.33;9.63;;;;;;;6.85;95.80;93141.31;5067526;28;20775;-81
2022/05/05 01:21:21;;;;;;;10.67;10.10;;;;;;;6.98;96.07;93158.31;5069777;28;20300;-81
2022/05/05 01:23:46;;;;;;;10.93;10.33;;;;;;;6.87;95.99;93128.09;5058792;28;20197;-80
2022/05/05 01:28:57;;;;;;;11.87;10.57;;;;;;;6.88;95.63;93137.44;5052402;28;20200;-81
2022/05/05 01:31:22;;;;;;;10.33;9.83;;;;;;;6.78;95.78;93130.34;5056342;28;20238;-81
2022/05/05 01:33:48;;;;;;;9.57;9.07;;;;;;;6.76;96.44;93152.34;5063092;28;20222;-82
2022/05/05 01:36:14;;;;;;;10.20;9.60;;;;;;;6.58;95.70;93123.09;5072357;28;20232;-80
2022/05/05 01:38:41;;;;;;;10.00;9.60;;;;;;;6.64;96.79;93152.47;5062984;28;20193;-82
2022/05/05 01:41:11;;;;;;;10.23;9.73;;;;;;;6.70;97.39;93156.69;5071390;28;20288;-81
2022/05/05 01:43:38;;;;;;;10.03;9.57;;;;;;;6.57;97.30;93147.47;5068524;28;20190;-79
2022/05/05 01:46:05;;;;;;;9.33;8.93;;;;;;;6.70;96.60;93143.72;5073310;28;20232;-82
2022/05/05 01:48:31;;;;;;;9.07;8.67;;;;;;;6.79;96.25;93151.84;5070634;28;20253;-81
2022/05/05 01:50:56;;;;;;;10.23;9.63;;;;;;;6.90;95.23;93162.13;5070785;28;20225;-82
2022/05/05 01:53:22;;;;;;;10.10;9.53;;;;;;;6.82;95.83;93156.59;5071075;28;20185;-81
2022/05/05 01:55:48;;;;;;;10.30;9.70;;;;;;;6.87;95.77;93156.63;5069327;28;20200;-82
2022/05/05 01:58:13;;;;;;;9.97;9.47;;;;;;;6.81;95.98;93158.38;5063107;28;20245;-83
2022/05/05 02:00:39;;;;;;;10.80;10.20;;;;;;;6.79;95.98;93170.03;5069285;28;20208;-85
2022/05/05 02:03:12;;;;;;;9.77;9.27;;;;;;;6.80;96.19;93162.03;5073157;28;20181;-79
2022/05/05 02:05:39;;;;;;;8.90;8.50;;;;;;;6.79;95.27;93133.69;5054333;28;20185;-76
2022/05/05 02:08:05;;;;;;;9.57;9.03;;;;;;;6.85;95.19;93145.72;5069825;28;20189;-80
2022/05/05 02:10:30;;;;;;;9.87;9.37;;;;;;;6.63;96.88;93153.47;5065913;28;20189;-76
2022/05/05 02:12:57;;;;;;;9.17;8.67;;;;;;;6.77;96.67;93166.91;5067311;28;20217;-81
2022/05/05 02:15:23;;;;;;;9.73;9.23;;;;;;;6.74;96.10;93169.97;5061802;28;20187;-80
2022/05/05 02:17:48;;;;;;;9.73;9.23;;;;;;;6.52;96.26;93149.97;5068618;28;20228;-80
2022/05/05 02:20:14;;;;;;;9.43;8.93;;;;;;;6.55;96.20;93159.13;5068896;28;20187;-80
2022/05/05 02:22:40;;;;;;;10.30;9.80;;;;;;;6.61;96.95;93173.72;5069430;28;20253;-79
2022/05/05 02:25:06;;;;;;;10.93;10.17;;;;;;;6.57;96.29;93138.88;5066911;28;20232;-80
2022/05/05 02:27:48;;;;;;;10.10;9.63;;;;;;;6.66;96.20;93160.81;5071303;28;20252;-79
2022/05/05 02:30:14;;;;;;;9.97;9.57;;;;;;;6.75;95.77;93177.53;5064129;28;20197;-74
2022/05/05 02:32:39;;;;;;;10.17;9.63;;;;;;;6.81;96.03;93176.56;5070585;28;20869;-74
2022/05/05 02:35:05;;;;;;;9.87;9.33;;;;;;;6.72;96.25;93182.41;5073009;28;20208;-73
2022/05/05 02:40:15;;;;;;;11.80;11.20;;;;;;;6.63;96.33;93150.13;5074962;28;20220;-74
2022/05/05 02:42:40;;;;;;;10.50;9.90;;;;;;;6.69;95.75;93175.09;5052757;28;20217;-74
2022/05/05 02:45:06;;;;;;;10.10;9.63;;;;;;;6.57;95.73;93164.81;5056441;28;20186;-74
2022/05/05 02:47:31;;;;;;;10.47;9.90;;;;;;;6.69;95.24;93165.53;5072549;28;20229;-73
2022/05/05 02:49:57;;;;;;;10.50;9.80;;;;;;;6.69;94.36;93175.91;5068201;28;20194;-75
2022/05/05 02:52:22;;;;;;;10.83;10.17;;;;;;;6.64;94.45;93175.03;5072336;28;20751;-72
2022/05/05 02:54:50;;;;;;;10.67;10.17;;;;;;;6.42;95.07;93159.44;5072573;28;20196;-72
2022/05/05 02:57:20;;;;;;;11.03;10.33;;;;;;;6.29;96.06;93172.75;5084774;28;20223;-74
2022/05/05 02:59:47;;;;;;;9.27;8.87;;;;;;;6.44;95.56;93188.53;5065389;28;20216;-73
2022/05/05 03:02:13;;;;;;;9.23;8.73;;;;;;;6.49;96.03;93191.16;5073757;28;20217;-73
2022/05/05 03:04:39;;;;;;;10.10;9.70;;;;;;;6.31;96.94;93188.84;5066378;28;20200;-77
2022/05/05 03:07:04;;;;;;;10.90;10.40;;;;;;;6.29;97.64;93190.88;5068584;28;20217;-78
2022/05/05 03:09:30;;;;;;;10.80;10.10;;;;;;;6.49;95.43;93188.56;5075017;28;20256;-79
2022/05/05 03:11:55;;;;;;;10.10;9.60;;;;;;;6.43;95.52;93198.09;5068770;28;20233;-78
2022/05/05 03:14:21;;;;;;;9.57;9.17;;;;;;;6.33;96.97;93212.75;5069152;28;20189;-78
2022/05/05 03:16:46;;;;;;;11.00;10.40;;;;;;;6.32;97.79;93218.94;5068571;28;20244;-78
2022/05/05 03:19:12;;;;;;;9.70;9.20;;;;;;;6.19;96.88;93175.22;5070348;28;20192;-79
2022/05/05 03:21:37;;;;;;;9.33;8.93;;;;;;;6.48;96.13;93210.34;5058584;28;20240;-78
2022/05/05 03:24:04;;;;;;;11.10;10.43;;;;;;;6.61;95.68;93217.81;5072371;28;20245;-79
2022/05/05 03:26:29;;;;;;;10.00;9.40;;;;;;;6.64;95.33;93216.53;5060681;28;20241;-79
2022/05/05 03:28:55;;;;;;;11.63;10.73;;;;;;;6.70;95.16;93215.56;5074742;28;20280;-78
2022/05/05 03:31:21;;;;;;;10.70;10.07;;;;;;;6.72;95.22;93211.72;5066459;28;20961;-78
2022/05/05 03:33:46;;;;;;;11.47;10.77;;;;;;;6.82;95.19;93206.66;5074897;28;20328;-79
2022/05/05 03:36:12;;;;;;;11.50;10.70;;;;;;;6.95;93.89;93198.53;5060033;28;20252;-79
2022/05/05 03:38:37;;;;;;;12.17;11.17;;;;;;;6.89;93.37;93207.28;5071237;28;20193;-78
2022/05/05 03:41:05;;;;;;;11.23;10.53;;;;;;;6.83;94.52;93210.84;5064802;28;20242;-78
2022/05/05 03:43:30;;;;;;;11.93;11.10;;;;;;;6.94;94.00;93209.16;5059036;28;20213;-78
2022/05/05 03:45:56;;;;;;;10.53;10.03;;;;;;;7.07;92.75;93212.16;5057117;28;20247;-79
2022/05/05 03:48:21;;;;;;;11.37;10.67;;;;;;;6.98;93.22;93210.22;5069145;28;20192;-79
2022/05/05 03:50:47;;;;;;;11.10;10.50;;;;;;;7.03;92.36;93202.50;5069442;28;20205;-80
2022/05/05 03:53:12;;;;;;;10.73;10.13;;;;;;;7.32;91.75;93222.84;5060555;28;20516;-80
2022/05/05 03:55:38;;;;;;;10.17;9.60;;;;;;;7.55;90.99;93227.75;5070990;28;20223;-80
2022/05/05 03:58:03;;;;;;;10.57;10.00;;;;;;;7.50;91.38;93225.09;5073179;28;20184;-80
2022/05/05 04:00:29;;;;;;;10.30;9.70;;;;;;;7.60;91.71;93235.59;5071684;28;20272;-76
2022/05/05 04:05:38;;;;;;;9.43;8.80;;;;;;;7.96;90.54;93223.72;5057657;28;20972;-84
2022/05/05 04:08:05;;;;;;;10.10;9.60;;;;;;;7.94;91.58;93234.38;5065908;28;20197;-84
2022/05/05 04:10:31;;;;;;;10.53;10.03;;;;;;;8.04;90.84;93231.88;5068055;28;20256;-84
2022/05/05 04:12:57;;;;;;;10.87;10.37;;;;;;;7.96;91.35;93214.13;5047123;28;20233;-84
2022/05/05 04:15:23;;;;;;;9.77;9.27;;;;;;;8.34;91.03;93239.16;5053313;28;20178;-85
2022/05/05 04:17:49;;;;;;;10.97;10.17;;;;;;;8.59;89.79;93241.91;5052026;28;20230;-86
2022/05/05 04:20:15;;;;;;;10.50;9.90;;;;;;;8.45;88.98;93214.75;5070266;28;20512;-87
2022/05/05 04:22:41;;;;;;;11.50;10.80;;;;;;;8.73;88.58;93240.44;5063539;28;20244;-86
2022/05/05 04:25:07;;;;;;;10.07;9.57;;;;;;;8.76;87.92;93239.16;5071923;28;20189;-84
2022/05/05 04:27:34;;;;;;;11.77;10.77;;;;;;;8.99;87.39;93243.97;5073143;28;20229;-86
2022/05/05 04:29:59;;;;;;;12.77;11.57;;;;;;;9.07;86.55;93252.13;5075705;28;20232;-85
2022/05/05 04:32:25;;;;;;;11.37;10.60;;;;;;;9.11;86.36;93247.16;5070353;28;20229;-84
2022/05/05 04:34:50;;;;;;;12.77;11.83;;;;;;;9.38;85.79;93260.84;5071103;28;20190;-82
2022/05/05 04:37:16;;;;;;;12.97;11.57;;;;;;;9.52;85.46;93256.72;5070505;28;20255;-83
2022/05/05 04:39:42;;;;;;;14.93;13.73;;;;;;;9.48;85.20;93258.25;5071995;28;20200;-82
2022/05/05 04:42:08;;;;;;;14.47;13.23;;;;;;;9.72;84.32;93269.81;5071862;28;20229;-85
2022/05/05 04:44:34;;;;;;;14.93;13.50;;;;;;;9.83;83.27;93250.53;5071124;28;20261;-85
2022/05/05 04:47:01;;;;;;;16.33;14.70;;;;;;;10.20;81.52;93272.03;5065912;28;21792;-85
2022/05/05 04:49:26;;;;;;;16.13;14.60;;;;;;;10.30;81.74;93266.81;5061972;28;20192;-85
2022/05/05 04:51:52;;;;;;;15.80;14.20;;;;;;;9.98;82.60;93262.84;5070548;28;20229;-85
2022/05/05 04:54:17;;;;;;;15.80;14.30;;;;;;;10.18;81.48;93249.84;5069081;28;20200;-87
2022/05/05 04:56:43;;;;;;;14.33;13.17;;;;;;;10.17;82.40;93263.91;5071096;28;20865;-85
2022/05/05 04:59:08;;;;;;;15.63;14.03;;;;;;;10.12;82.56;93241.22;5067090;28;20839;-86
2022/05/05 05:01:34;;;;;;;16.17;14.67;;;;;;;10.19;83.84;93254.81;5064619;28;20217;-83
2022/05/05 05:04:02;;;;;;;16.67;14.03;;;;;;;10.14;85.10;93254.78;5069965;28;20193;-86
2022/05/05 05:06:28;;;;;;;15.53;14.03;;;;;;;10.10;85.45;93260.78;5074281;28;20222;-85
2022/05/05 05:08:53;;;;;;;16.43;14.87;;;;;;;10.29;83.98;93241.75;5068924;28;20197;-86
2022/05/05 05:11:19;;;;;;;16.00;14.27;;;;;;;11.16;80.85;93270.91;5073380;28;20280;-79
2022/05/05 05:13:45;;;;;;;14.37;13.13;;;;;;;11.41;77.57;93266.66;5068225;28;20181;-81
2022/05/05 05:16:10;;;;;;;16.63;15.17;;;;;;;11.89;75.84;93273.81;5073358;28;20244;-85
2022/05/05 05:18:36;;;;;;;15.97;14.57;;;;;;;11.73;75.44;93285.38;5070291;28;20181;-86
2022/05/05 05:21:01;;;;;;;16.87;15.27;;;;;;;11.73;75.82;93277.53;5073023;28;20226;-77
2022/05/05 05:23:27;;;;;;;15.53;14.07;;;;;;;11.57;75.94;93281.22;5071040;28;20231;-77
2022/05/05 05:25:52;;;;;;;14.83;13.47;;;;;;;11.84;75.46;93281.66;5073037;28;20199;-76
2022/05/05 05:28:17;;;;;;;16.23;14.43;;;;;;;11.60;76.50;93288.53;5064448;28;20194;-77
2022/05/05 05:30:44;;;;;;;17.00;15.37;;;;;;;11.81;76.26;93287.44;5068600;28;20205;-77
2022/05/05 05:33:09;;;;;;;16.87;14.73;;;;;;;11.91;76.06;93274.28;5069658;28;20229;-86
2022/05/05 05:35:35;;;;;;;15.97;14.20;;;;;;;12.64;73.02;93281.13;5065067;28;20188;-77
2022/05/05 05:38:01;;;;;;;17.40;15.70;;;;;;;12.95;71.47;93303.41;5066523;28;20211;-81
2022/05/05 05:40:26;;;;;;;15.97;14.57;;;;;;;13.04;70.73;93301.03;5065389;28;20195;-81
2022/05/05 05:42:52;;;;;;;17.33;15.73;;;;;;;13.05;70.20;93281.59;5069493;28;20221;-83
2022/05/05 05:45:18;;;;;;;16.03;14.50;;;;;;;12.37;73.35;93301.78;5067164;28;20191;-83
2022/05/05 05:47:44;;;;;;;16.37;14.80;;;;;;;13.13;69.25;93302.78;5048755;28;20227;-83
2022/05/05 05:50:10;;;;;;;17.27;15.37;;;;;;;12.78;70.41;93306.44;5049101;28;20186;-84
2022/05/05 05:52:36;;;;;;;16.90;15.30;;;;;;;12.75;71.59;93314.06;5050666;28;20217;-83
2022/05/05 05:55:01;;;;;;;18.17;16.47;;;;;;;13.34;68.31;93322.47;5047307;28;20228;-80
2022/05/05 05:57:28;;;;;;;19.90;16.60;;;;;;;13.18;67.70;93313.22;5050842;28;20225;-80
2022/05/05 05:59:53;;;;;;;16.97;15.27;;;;;;;14.80;64.01;93318.81;5052361;28;20182;-81
2022/05/05 06:05:06;;;;;;;17.03;15.03;;;;;;;19.68;49.77;93311.06;5063929;28;20188;-79
2022/05/05 06:07:31;;;;;;;15.33;13.73;;;;;;;23.40;39.49;93313.28;5050038;28;20241;-78
2022/05/05 06:09:56;;;;;;;15.50;13.90;;;;;;;24.43;37.33;93318.22;5050093;28;20178;-85
2022/05/05 06:12:22;;;;;;;15.20;13.70;;;;;;;25.39;34.33;93307.72;5068771;28;20237;-79
2022/05/05 06:14:47;;;;;;;15.13;13.63;;;;;;;26.02;33.89;93324.97;5073992;28;20195;-80
2022/05/05 06:17:13;;;;;;;14.80;13.23;;;;;;;24.65;35.80;93322.16;5064576;28;20230;-81
2022/05/05 06:19:38;;;;;;;15.63;13.43;;;;;;;25.02;35.85;93304.66;5072422;28;20267;-79
2022/05/05 06:22:04;;;;;;;16.65;14.00;;;;;;;24.61;35.44;93310.59;5071942;28;20207;-78
2022/05/05 06:24:29;;;;;;;15.75;14.15;;;;;;;19.67;46.55;93305.00;5059935;28;20186;-79
2022/05/05 06:26:55;;;;;;;18.87;14.53;;;;;;;17.21;53.48;93293.69;5071189;28;20250;-79
2022/05/05 06:29:20;;;;;;;18.97;16.17;;;;;;;15.40;60.77;93306.53;5070890;28;20189;-79
2022/05/05 06:31:46;;;;;;;18.77;16.80;;;;;;;14.08;67.01;93299.09;5072009;28;20259;-79
2022/05/05 06:34:11;;;;;;;22.30;17.77;;;;;;;13.78;67.63;93296.03;5069866;28;20186;-79
2022/05/05 06:36:36;;;;;;;22.63;17.13;;;;;;;14.01;67.19;93306.50;5070503;28;20228;-80
2022/05/05 06:39:02;;;;;;;21.70;18.00;;;;;;;13.90;67.70;93306.94;5063588;28;20241;-82
2022/05/05 06:41:28;;;;;;;20.23;18.13;;;;;;;13.53;69.97;93304.19;5075264;28;20241;-81
2022/05/05 06:43:54;;;;;;;25.60;19.10;;;;;;;13.16;71.70;93304.84;5069614;28;20191;-81
2022/05/05 06:46:20;;;;;;;23.30;17.67;;;;;;;13.06;72.68;93309.41;5075333;28;20221;-77
2022/05/05 06:48:45;;;;;;;27.27;20.10;;;;;;;12.91;74.33;93313.69;5069998;28;20220;-82
2022/05/05 06:51:11;;;;;;;26.53;18.80;;;;;;;13.30;71.51;93318.06;5071839;28;20237;-83
2022/05/05 06:53:37;;;;;;;30.03;18.87;;;;;;;12.98;72.91;93305.47;5070197;28;20252;-79
2022/05/05 06:56:02;;;;;;;24.60;19.40;;;;;;;13.09;73.51;93301.00;5074632;28;20228;-83
2022/05/05 06:58:28;;;;;;;24.30;18.53;;;;;;;13.06;75.35;93312.03;5068613;28;20208;-79
2022/05/05 07:03:42;;;;;;;25.77;18.47;;;;;;;12.79;75.72;93315.09;5020783;28;20198;-83
2022/05/05 07:06:10;;;;;;;25.87;19.17;;;;;;;13.02;74.80;93313.63;5047736;28;20230;-84
2022/05/05 07:11:37;;;;;;;24.57;17.87;;;;;;;12.36;78.59;93318.53;4975652;28;20258;-82
2022/05/05 07:14:02;;;;;;;27.40;18.40;;;;;;;13.02;75.84;93314.41;5040112;28;20206;-81
2022/05/05 07:16:28;;;;;;;24.50;19.10;;;;;;;13.14;73.54;93317.44;5059798;28;20241;-86
2022/05/05 07:18:53;;;;;;;24.47;17.70;;;;;;;12.64;76.59;93323.84;5075143;28;20197;-83
2022/05/05 07:21:20;;;;;;;25.40;18.87;;;;;;;12.57;78.82;93330.47;5069543;28;20242;-85
2022/05/05 07:23:45;;;;;;;22.43;18.00;;;;;;;12.82;76.52;93332.91;5068371;28;20268;-83
2022/05/05 07:26:11;;;;;;;20.13;17.37;;;;;;;13.13;75.83;93330.81;5067558;28;20260;-84
2022/05/05 07:28:36;;;;;;;26.20;18.67;;;;;;;12.92;77.51;93340.66;5046577;28;20191;-82
2022/05/05 07:31:02;;;;;;;23.60;18.83;;;;;;;12.76;78.00;93332.13;5054220;28;20452;-83
2022/05/05 07:33:27;;;;;;;25.17;19.13;;;;;;;13.15;73.69;93303.28;5040580;28;20225;-80
2022/05/05 07:35:53;;;;;;;19.43;16.67;;;;;;;13.41;70.78;93343.94;5053231;28;20201;-82
2022/05/05 07:38:19;;;;;;;23.53;16.50;;;;;;;13.42;73.40;93329.75;5052553;28;20308;-81
2022/05/05 07:40:44;;;;;;;18.43;15.97;;;;;;;13.62;72.09;93321.66;5055957;28;20193;-81
2022/05/05 07:43:10;;;;;;;19.93;15.67;;;;;;;13.88;70.58;93322.19;5071593;28;20690;-80
2022/05/05 07:45:35;;;;;;;18.53;16.03;;;;;;;13.56;72.45;93308.88;5076763;28;20181;-79
2022/05/05 07:48:02;;;;;;;18.87;15.83;;;;;;;13.59;71.71;93297.81;5071036;28;20216;-80
2022/05/05 07:50:27;;;;;;;18.60;15.30;;;;;;;13.94;72.44;93307.91;5071648;28;20201;-81
2022/05/05 07:52:52;;;;;;;19.33;17.07;;;;;;;14.12;70.02;93334.22;5046719;28;20226;-81
2022/05/05 07:55:18;;;;;;;18.47;16.70;;;;;;;13.88;71.47;93338.69;5048966;28;20186;-82
2022/05/05 07:57:47;;;;;;;17.10;15.30;;;;;;;14.02;72.01;93308.06;5067122;28;20225;-82
2022/05/05 08:00:13;;;;;;;17.30;15.43;;;;;;;14.60;70.37;93350.66;5046490;28;20257;-85
2022/05/05 08:02:39;;;;;;;17.83;15.30;;;;;;;14.58;70.05;93352.03;5050377;28;20228;-83
2022/05/05 08:05:05;;;;;;;17.83;15.63;;;;;;;14.46;69.34;93349.81;5051089;28;20182;-85
2022/05/05 08:07:30;;;;;;;17.33;15.63;;;;;;;14.38;70.40;93359.09;5066048;28;20241;-82
2022/05/05 08:09:56;;;;;;;19.87;15.10;;;;;;;14.58;70.53;93355.44;5071827;28;20189;-82
2022/05/05 08:12:21;;;;;;;18.13;15.23;;;;;;;14.34;72.29;93355.50;5065100;28;20237;-83
2022/05/05 08:14:46;;;;;;;19.03;15.93;;;;;;;14.72;72.10;93358.13;5061201;28;20186;-84
2022/05/05 08:17:12;;;;;;;17.07;14.87;;;;;;;14.86;70.34;93364.22;5068598;28;20282;-82
2022/05/05 08:19:37;;;;;;;23.07;14.83;;;;;;;15.27;69.38;93358.03;5070575;28;20189;-86
2022/05/05 08:22:03;;;;;;;16.67;14.77;;;;;;;14.94;68.77;93350.44;5066687;28;20256;-82
2022/05/05 08:30:02;;;;;;;22.03;16.70;;;;;;;15.16;70.27;93359.28;5067393;28;20258;-84
2022/05/05 08:32:28;;;;;;;18.23;16.20;;;;;;;15.41;67.63;93360.75;5066730;28;20238;-82
2022/05/05 08:34:54;;;;;;;18.87;15.73;;;;;;;14.95;67.10;93347.53;5070572;28;20189;-90
2022/05/05 08:37:19;;;;;;;15.97;14.43;;;;;;;15.25;65.45;93354.91;5068509;28;20236;-86
2022/05/05 08:39:45;;;;;;;15.77;14.17;;;;;;;15.58;64.78;93355.72;5058664;28;20213;-85
2022/05/05 08:42:11;;;;;;;20.67;13.50;;;;;;;15.59;64.52;93347.53;5071859;28;20233;-85
2022/05/05 08:44:37;;;;;;;14.87;13.57;;;;;;;15.86;61.77;93344.91;5072637;28;20190;-85
2022/05/05 08:47:04;;;;;;;15.67;13.97;;;;;;;16.05;62.76;93357.97;5069822;28;20241;-86
2022/05/05 08:49:30;;;;;;;14.77;13.27;;;;;;;16.01;61.29;93344.63;5074256;28;20185;-83
2022/05/05 08:52:00;;;;;;;14.77;13.53;;;;;;;15.81;59.73;93366.06;5062378;28;20802;-83
2022/05/05 08:54:31;;;;;;;15.67;14.17;;;;;;;15.43;61.85;93345.44;5065548;28;20186;-82
2022/05/05 08:56:56;;;;;;;15.00;13.53;;;;;;;15.52;61.30;93351.59;5059639;28;20256;-87
2022/05/05 08:59:22;;;;;;;13.70;12.47;;;;;;;15.73;61.00;93368.59;5070099;28;20219;-84
2022/05/05 09:01:48;;;;;;;13.30;12.07;;;;;;;16.01;58.55;93360.44;5065705;28;20240;-88
2022/05/05 09:04:14;;;;;;;13.47;12.10;;;;;;;16.09;56.67;93357.09;5070440;28;20200;-86
2022/05/05 09:06:51;;;;;;;11.60;10.80;;;;;;;16.19;57.05;93355.34;5059736;28;20225;-86
2022/05/05 09:09:30;;;;;;;11.63;10.73;;;;;;;16.35;54.68;93357.38;5048773;28;20214;-84
2022/05/05 09:12:19;;;;;;;11.90;11.00;;;;;;;16.60;52.46;93364.00;5060319;28;20225;-86
2022/05/05 09:14:49;;;;;;;11.57;10.77;;;;;;;16.88;52.22;93353.09;5068319;28;20200;-86
2022/05/05 09:17:18;;;;;;;12.50;11.50;;;;;;;16.96;50.45;93370.84;5070812;28;20263;-85
2022/05/05 09:19:45;;;;;;;10.93;10.13;;;;;;;17.15;51.79;93354.84;5069097;28;20182;-90
2022/05/05 09:22:12;;;;;;;12.07;11.17;;;;;;;17.42;53.18;93358.09;5061599;28;20293;-78
2022/05/05 09:24:41;;;;;;;11.43;10.53;;;;;;;17.12;51.14;93342.25;5067872;28;20250;-77
2022/05/05 09:27:17;;;;;;;10.83;10.13;;;;;;;17.13;48.94;93356.97;5067057;28;20313;-77
2022/05/05 09:30:12;;;;;;;13.07;11.87;;;;;;;17.05;51.07;93365.63;5073460;28;20184;-76
2022/05/05 09:32:40;;;;;;;12.00;10.80;;;;;;;16.98;53.36;93352.84;5065233;28;20221;-77
2022/05/05 09:35:15;;;;;;;11.13;10.33;;;;;;;17.09;49.86;93356.78;5070149;28;20199;-77
2022/05/05 09:37:49;;;;;;;10.13;9.30;;;;;;;17.02;46.46;93359.09;5067041;28;20216;-77
2022/05/05 09:40:24;;;;;;;10.03;9.13;;;;;;;16.89;50.88;93354.63;5066655;28;20185;-77
2022/05/05 09:42:51;;;;;;;9.77;9.17;;;;;;;17.16;51.49;93351.91;5072650;28;20213;-77
2022/05/05 09:45:19;;;;;;;11.63;10.57;;;;;;;17.06;51.44;93348.69;5070302;28;20592;-78
2022/05/05 09:47:49;;;;;;;9.73;9.13;;;;;;;17.17;46.03;93340.25;5066636;28;20252;-77
2022/05/05 09:50:16;;;;;;;8.70;8.20;;;;;;;17.24;44.47;93350.38;5068442;28;20254;-77
2022/05/05 09:58:17;;;;;;;9.73;9.20;;;;;;;16.48;44.31;93324.97;5068420;28;20208;-77
2022/05/05 10:00:58;;;;;;;8.50;8.10;;;;;;;17.16;46.57;93349.25;5061562;28;20205;-77
2022/05/05 10:06:23;;;;;;;9.23;8.67;;;;;;;17.83;44.13;93342.03;5072637;28;20244;-77
2022/05/05 10:08:51;;;;;;;8.20;7.90;;;;;;;17.90;40.78;93341.59;5069129;28;20185;-78
2022/05/05 10:11:19;;;;;;;8.63;8.23;;;;;;;17.64;44.56;93328.28;5068801;28;20259;-77
2022/05/05 10:13:45;;;;;;;9.90;9.30;;;;;;;17.72;44.12;93329.41;5069221;28;20182;-77
2022/05/05 10:16:14;;;;;;;10.37;9.77;;;;;;;17.68;45.99;93344.31;5069648;28;20308;-78
2022/05/05 10:18:41;;;;;;;9.47;8.97;;;;;;;17.76;46.31;93340.94;5071591;28;20185;-81
2022/05/05 10:21:08;;;;;;;9.53;8.93;;;;;;;17.56;45.14;93337.72;5066833;28;20224;-82
2022/05/05 10:23:46;;;;;;;9.70;9.10;;;;;;;17.93;44.50;93325.91;5063253;28;20229;-77
2022/05/05 10:26:13;;;;;;;9.20;8.60;;;;;;;17.83;45.27;93347.31;5065261;28;20241;-77
2022/05/05 10:28:43;;;;;;;8.40;7.90;;;;;;;18.18;39.02;93337.66;5059996;28;20185;-78
2022/05/05 10:31:30;;;;;;;8.80;8.23;;;;;;;18.05;40.91;93344.63;5059836;28;20255;-77
2022/05/05 10:34:01;;;;;;;9.07;8.57;;;;;;;18.11;40.67;93353.97;5067588;28;20229;-78
2022/05/05 10:36:30;;;;;;;9.30;8.60;;;;;;;18.00;41.41;93331.53;5058823;28;20233;-79
2022/05/05 10:38:56;;;;;;;9.50;8.80;;;;;;;17.80;40.51;93347.16;5048429;28;20194;-78
2022/05/05 10:41:35;;;;;;;8.47;7.97;;;;;;;18.01;41.43;93348.19;5052683;28;20225;-78
2022/05/05 10:44:13;;;;;;;8.30;7.90;;;;;;;18.41;41.76;93336.50;5053030;28;20329;-78
2022/05/05 10:47:05;;;;;;;8.67;8.27;;;;;;;18.54;41.58;93351.44;5040108;28;20244;-78
2022/05/05 10:49:33;;;;;;;9.33;8.50;;;;;;;17.87;43.54;93353.53;5052789;28;20178;-79
2022/05/05 10:52:13;;;;;;;8.50;8.10;;;;;;;18.38;41.12;93350.34;5063364;28;20293;-79
2022/05/05 10:54:40;;;;;;;9.20;8.70;;;;;;;18.52;41.55;93346.47;5065955;28;20200;-79
2022/05/05 10:57:27;;;;;;;8.93;8.53;;;;;;;18.45;40.04;93348.78;5064326;28;20376;-78
2022/05/05 11:00:15;;;;;;;8.77;8.33;;;;;;;18.46;39.86;93352.22;5072353;28;20206;-78
2022/05/05 11:03:03;;;;;;;9.53;8.93;;;;;;;18.48;43.12;93347.38;5071435;28;21309;-79
2022/05/05 11:05:30;;;;;;;8.90;8.30;;;;;;;18.60;39.49;93350.22;5063070;28;20214;-79
2022/05/05 11:08:17;;;;;;;9.00;8.43;;;;;;;18.37;41.07;93346.09;5067088;28;20234;-80
2022/05/05 11:10:45;;;;;;;9.37;8.87;;;;;;;18.47;41.37;93330.75;5064570;28;20221;-80
2022/05/05 11:13:35;;;;;;;10.07;9.47;;;;;;;18.56;42.92;93341.34;5052855;28;20187;-80
2022/05/05 11:22:23;;;;;;;9.23;8.73;;;;;;;19.27;42.07;93338.06;5055271;28;20263;-88
2022/05/05 11:24:50;;;;;;;8.80;8.40;;;;;;;19.15;41.00;93343.22;5043802;28;20190;-82
2022/05/05 11:27:24;;;;;;;8.97;8.43;;;;;;;19.99;40.84;93348.66;5064674;28;20230;-83
2022/05/05 11:29:55;;;;;;;9.10;8.37;;;;;;;20.57;40.36;93362.78;5066635;28;20183;-83
2022/05/05 11:32:27;;;;;;;8.80;8.30;;;;;;;20.68;38.00;93350.69;5059991;28;20231;-83
2022/05/05 11:34:52;;;;;;;9.33;8.73;;;;;;;20.25;36.47;93320.97;5071968;28;20192;-83
2022/05/05 11:37:18;;;;;;;8.87;8.30;;;;;;;20.41;34.97;93340.56;5071887;28;20219;-81
2022/05/05 11:39:46;;;;;;;8.10;7.70;;;;;;;20.00;34.50;93334.34;5072609;28;20183;-84
2022/05/05 11:42:13;;;;;;;8.30;7.90;;;;;;;20.67;32.45;93343.81;5053708;28;20233;-83
2022/05/05 11:44:41;;;;;;;7.97;7.57;;;;;;;20.76;33.44;93327.06;5054187;28;20176;-83
2022/05/05 11:47:17;;;;;;;8.10;7.70;;;;;;;20.98;34.73;93342.72;5063446;28;20292;-84
2022/05/05 11:49:44;;;;;;;7.78;7.38;;;;;;;20.94;34.20;93341.75;5074917;28;20191;-82
2022/05/05 11:52:14;;;;;;;8.37;7.87;;;;;;;20.84;36.02;93326.22;5057061;28;20247;-84
2022/05/05 11:54:40;;;;;;;8.23;7.72;;;;;;;20.81;37.23;93305.66;5053307;28;20181;-82
2022/05/05 11:57:05;;;;;;;8.02;7.63;;;;;;;21.17;36.50;93335.81;5051757;28;20239;-84
2022/05/05 12:02:21;;;;;;;8.27;7.88;;;;;;;20.46;36.84;93321.81;5051377;28;20231;-83
2022/05/05 12:04:54;;;;;;;7.60;7.30;;;;;;;20.22;37.04;93300.41;5053419;28;20219;-83
2022/05/05 12:07:23;;;;;;;8.60;8.10;;;;;;;19.31;38.66;93290.59;5050685;28;20231;-81
2022/05/05 12:09:56;;;;;;;8.38;7.88;;;;;;;19.27;38.59;93289.66;5044720;28;20434;-79
2022/05/05 12:12:24;;;;;;;7.63;7.18;;;;;;;19.61;37.80;93305.47;5044690;28;20228;-83